sensor_id;sensor_type;location;lat;lon;timestamp;P1;durP1;ratioP1;P2;durP2;ratioP2
13327;SDS011;6733;51.044;3.746;2023-10-13T00:01:57;5.03;;;3.67;;
13327;SDS011;6733;51.044;3.746;2023-10-13T00:04:25;6.00;;;3.80;;
13327;SDS011;6733;51.044;3.746;2023-10-13T00:06:51;4.33;;;3.40;;
13327;SDS011;6733;51.044;3.746;2023-10-13T00:09:19;8.27;;;3.97;;
13327;SDS011;6733;51.044;3.746;2023-10-13T00:11:51;5.63;;;4.00;;
13327;SDS011;6733;51.044;3.746;2023-10-13T00:14:18;7.27;;;3.70;;
13327;SDS011;6733;51.044;3.746;2023-10-13T00:16:46;8.37;;;3.77;;
13327;SDS011;6733;51.044;3.746;2023-10-13T00:19:34;5.80;;;3.67;;
13327;SDS011;6733;51.044;3.746;2023-10-13T00:22:11;6.30;;;3.67;;
13327;SDS011;6733;51.044;3.746;2023-10-13T00:24:45;5.77;;;3.53;;
13327;SDS011;6733;51.044;3.746;2023-10-13T00:27:12;7.90;;;3.93;;
13327;SDS011;6733;51.044;3.746;2023-10-13T00:30:05;10.97;;;4.20;;
13327;SDS011;6733;51.044;3.746;2023-10-13T00:32:49;5.00;;;3.50;;
13327;SDS011;6733;51.044;3.746;2023-10-13T00:35:21;6.97;;;3.73;;
13327;SDS011;6733;51.044;3.746;2023-10-13T00:37:51;7.73;;;3.93;;
13327;SDS011;6733;51.044;3.746;2023-10-13T00:40:21;6.17;;;3.40;;
13327;SDS011;6733;51.044;3.746;2023-10-13T00:43:07;9.07;;;4.00;;
13327;SDS011;6733;51.044;3.746;2023-10-13T00:45:46;7.93;;;3.67;;
13327;SDS011;6733;51.044;3.746;2023-10-13T00:51:03;8.80;;;3.73;;
13327;SDS011;6733;51.044;3.746;2023-10-13T00:53:38;10.60;;;4.40;;
13327;SDS011;6733;51.044;3.746;2023-10-13T00:56:10;6.90;;;3.70;;
13327;SDS011;6733;51.044;3.746;2023-10-13T00:58:53;8.17;;;4.23;;
13327;SDS011;6733;51.044;3.746;2023-10-13T01:01:23;6.33;;;4.13;;
13327;SDS011;6733;51.044;3.746;2023-10-13T01:03:58;5.93;;;3.57;;
13327;SDS011;6733;51.044;3.746;2023-10-13T01:06:25;9.20;;;3.80;;
13327;SDS011;6733;51.044;3.746;2023-10-13T01:08:59;6.00;;;4.13;;
13327;SDS011;6733;51.044;3.746;2023-10-13T01:11:25;6.80;;;3.40;;
13327;SDS011;6733;51.044;3.746;2023-10-13T01:13:55;5.77;;;3.77;;
13327;SDS011;6733;51.044;3.746;2023-10-13T01:16:22;6.10;;;3.83;;
13327;SDS011;6733;51.044;3.746;2023-10-13T01:18:53;8.07;;;4.23;;
13327;SDS011;6733;51.044;3.746;2023-10-13T01:21:25;6.97;;;4.27;;
13327;SDS011;6733;51.044;3.746;2023-10-13T01:23:55;4.97;;;4.37;;
13327;SDS011;6733;51.044;3.746;2023-10-13T01:26:21;7.03;;;4.40;;
13327;SDS011;6733;51.044;3.746;2023-10-13T01:28:52;6.43;;;3.93;;
13327;SDS011;6733;51.044;3.746;2023-10-13T01:31:24;7.73;;;4.33;;
13327;SDS011;6733;51.044;3.746;2023-10-13T01:33:53;4.63;;;3.90;;
13327;SDS011;6733;51.044;3.746;2023-10-13T01:36:20;6.83;;;4.00;;
13327;SDS011;6733;51.044;3.746;2023-10-13T01:38:47;5.87;;;3.70;;
13327;SDS011;6733;51.044;3.746;2023-10-13T01:41:15;4.13;;;3.53;;
13327;SDS011;6733;51.044;3.746;2023-10-13T01:43:42;6.40;;;3.87;;
13327;SDS011;6733;51.044;3.746;2023-10-13T01:46:09;6.63;;;3.93;;
13327;SDS011;6733;51.044;3.746;2023-10-13T01:48:36;5.57;;;3.77;;
13327;SDS011;6733;51.044;3.746;2023-10-13T01:51:06;5.07;;;3.97;;
13327;SDS011;6733;51.044;3.746;2023-10-13T01:53:36;7.47;;;4.13;;
13327;SDS011;6733;51.044;3.746;2023-10-13T01:56:03;7.70;;;4.40;;
13327;SDS011;6733;51.044;3.746;2023-10-13T01:58:40;9.07;;;5.00;;
13327;SDS011;6733;51.044;3.746;2023-10-13T02:01:13;6.53;;;4.63;;
13327;SDS011;6733;51.044;3.746;2023-10-13T02:03:52;7.13;;;4.90;;
13327;SDS011;6733;51.044;3.746;2023-10-13T02:06:31;8.63;;;5.47;;
13327;SDS011;6733;51.044;3.746;2023-10-13T02:08:59;8.03;;;4.93;;
13327;SDS011;6733;51.044;3.746;2023-10-13T02:11:31;8.90;;;6.53;;
13327;SDS011;6733;51.044;3.746;2023-10-13T02:13:57;9.03;;;6.30;;
13327;SDS011;6733;51.044;3.746;2023-10-13T02:16:25;11.07;;;7.57;;
13327;SDS011;6733;51.044;3.746;2023-10-13T02:18:52;8.73;;;6.97;;
13327;SDS011;6733;51.044;3.746;2023-10-13T02:21:18;10.23;;;7.17;;
13327;SDS011;6733;51.044;3.746;2023-10-13T02:23:44;10.87;;;7.80;;
13327;SDS011;6733;51.044;3.746;2023-10-13T02:26:14;12.53;;;8.93;;
13327;SDS011;6733;51.044;3.746;2023-10-13T02:28:41;9.77;;;8.77;;
13327;SDS011;6733;51.044;3.746;2023-10-13T02:31:09;16.23;;;10.20;;
13327;SDS011;6733;51.044;3.746;2023-10-13T02:56:47;20.03;;;16.07;;
13327;SDS011;6733;51.044;3.746;2023-10-13T02:59:23;20.40;;;15.50;;
13327;SDS011;6733;51.044;3.746;2023-10-13T03:02:08;20.60;;;15.73;;
13327;SDS011;6733;51.044;3.746;2023-10-13T03:04:44;20.10;;;16.07;;
13327;SDS011;6733;51.044;3.746;2023-10-13T03:07:14;18.50;;;15.53;;
13327;SDS011;6733;51.044;3.746;2023-10-13T03:09:49;16.60;;;14.10;;
13327;SDS011;6733;51.044;3.746;2023-10-13T03:12:16;18.37;;;14.47;;
13327;SDS011;6733;51.044;3.746;2023-10-13T03:14:47;19.10;;;13.90;;
13327;SDS011;6733;51.044;3.746;2023-10-13T03:17:13;17.70;;;13.17;;
13327;SDS011;6733;51.044;3.746;2023-10-13T03:19:42;14.97;;;12.97;;
13327;SDS011;6733;51.044;3.746;2023-10-13T03:22:15;16.50;;;12.87;;
13327;SDS011;6733;51.044;3.746;2023-10-13T03:24:42;15.07;;;13.50;;
13327;SDS011;6733;51.044;3.746;2023-10-13T03:27:13;18.47;;;13.33;;
13327;SDS011;6733;51.044;3.746;2023-10-13T03:29:44;17.77;;;12.50;;
13327;SDS011;6733;51.044;3.746;2023-10-13T03:32:19;16.53;;;12.30;;
13327;SDS011;6733;51.044;3.746;2023-10-13T03:34:46;20.57;;;12.70;;
13327;SDS011;6733;51.044;3.746;2023-10-13T03:37:22;12.70;;;11.03;;
13327;SDS011;6733;51.044;3.746;2023-10-13T03:40:14;14.30;;;10.83;;
13327;SDS011;6733;51.044;3.746;2023-10-13T03:42:46;12.73;;;10.63;;
13327;SDS011;6733;51.044;3.746;2023-10-13T03:45:39;17.40;;;11.27;;
13327;SDS011;6733;51.044;3.746;2023-10-13T03:48:10;12.57;;;10.03;;
13327;SDS011;6733;51.044;3.746;2023-10-13T03:53:32;13.60;;;9.53;;
13327;SDS011;6733;51.044;3.746;2023-10-13T03:56:00;12.00;;;8.90;;
13327;SDS011;6733;51.044;3.746;2023-10-13T03:58:42;10.07;;;8.03;;
13327;SDS011;6733;51.044;3.746;2023-10-13T04:01:11;10.03;;;8.87;;
13327;SDS011;6733;51.044;3.746;2023-10-13T04:03:41;12.13;;;8.87;;
13327;SDS011;6733;51.044;3.746;2023-10-13T04:06:27;9.83;;;8.00;;
13327;SDS011;6733;51.044;3.746;2023-10-13T04:09:18;11.80;;;9.00;;
13327;SDS011;6733;51.044;3.746;2023-10-13T04:11:53;15.13;;;9.17;;
13327;SDS011;6733;51.044;3.746;2023-10-13T04:14:41;13.63;;;8.70;;
13327;SDS011;6733;51.044;3.746;2023-10-13T04:17:14;15.07;;;9.90;;
13327;SDS011;6733;51.044;3.746;2023-10-13T04:19:41;11.43;;;8.80;;
13327;SDS011;6733;51.044;3.746;2023-10-13T04:22:26;15.27;;;9.80;;
13327;SDS011;6733;51.044;3.746;2023-10-13T04:25:11;16.73;;;9.07;;
13327;SDS011;6733;51.044;3.746;2023-10-13T04:28:14;10.27;;;8.83;;
13327;SDS011;6733;51.044;3.746;2023-10-13T04:30:44;13.30;;;8.90;;
13327;SDS011;6733;51.044;3.746;2023-10-13T04:33:18;15.57;;;8.60;;
13327;SDS011;6733;51.044;3.746;2023-10-13T04:36:12;14.87;;;8.30;;
13327;SDS011;6733;51.044;3.746;2023-10-13T04:38:49;11.80;;;7.57;;
13327;SDS011;6733;51.044;3.746;2023-10-13T04:43:58;12.37;;;8.43;;
13327;SDS011;6733;51.044;3.746;2023-10-13T04:46:30;12.63;;;8.07;;
13327;SDS011;6733;51.044;3.746;2023-10-13T04:49:12;11.47;;;7.60;;
13327;SDS011;6733;51.044;3.746;2023-10-13T04:51:57;14.33;;;7.67;;
13327;SDS011;6733;51.044;3.746;2023-10-13T04:54:25;12.70;;;7.90;;
13327;SDS011;6733;51.044;3.746;2023-10-13T04:57:13;16.80;;;8.53;;
13327;SDS011;6733;51.044;3.746;2023-10-13T05:00:21;15.27;;;8.70;;
13327;SDS011;6733;51.044;3.746;2023-10-13T05:02:47;15.93;;;8.37;;
13327;SDS011;6733;51.044;3.746;2023-10-13T05:05:26;15.07;;;8.50;;
13327;SDS011;6733;51.044;3.746;2023-10-13T05:08:11;9.53;;;8.13;;
13327;SDS011;6733;51.044;3.746;2023-10-13T05:10:56;14.77;;;7.90;;
13327;SDS011;6733;51.044;3.746;2023-10-13T05:13:41;12.10;;;8.40;;
13327;SDS011;6733;51.044;3.746;2023-10-13T05:16:26;14.90;;;8.97;;
13327;SDS011;6733;51.044;3.746;2023-10-13T05:19:10;19.07;;;9.27;;
13327;SDS011;6733;51.044;3.746;2023-10-13T05:21:55;18.17;;;9.17;;
13327;SDS011;6733;51.044;3.746;2023-10-13T05:24:40;17.03;;;10.27;;
13327;SDS011;6733;51.044;3.746;2023-10-13T05:27:25;15.83;;;9.90;;
13327;SDS011;6733;51.044;3.746;2023-10-13T05:30:10;12.67;;;8.90;;
13327;SDS011;6733;51.044;3.746;2023-10-13T05:32:55;17.63;;;9.47;;
13327;SDS011;6733;51.044;3.746;2023-10-13T05:35:40;14.57;;;9.93;;
13327;SDS011;6733;51.044;3.746;2023-10-13T05:38:25;12.83;;;9.67;;
13327;SDS011;6733;51.044;3.746;2023-10-13T05:41:09;15.03;;;9.37;;
13327;SDS011;6733;51.044;3.746;2023-10-13T05:43:54;15.73;;;9.53;;
13327;SDS011;6733;51.044;3.746;2023-10-13T05:46:39;16.77;;;9.13;;
13327;SDS011;6733;51.044;3.746;2023-10-13T05:49:08;17.33;;;9.33;;
13327;SDS011;6733;51.044;3.746;2023-10-13T05:51:34;19.87;;;9.00;;
13327;SDS011;6733;51.044;3.746;2023-10-13T05:54:01;13.83;;;8.20;;
13327;SDS011;6733;51.044;3.746;2023-10-13T05:59:29;12.00;;;7.90;;
13327;SDS011;6733;51.044;3.746;2023-10-13T06:02:15;18.53;;;8.77;;
13327;SDS011;6733;51.044;3.746;2023-10-13T06:05:03;13.37;;;8.23;;
13327;SDS011;6733;51.044;3.746;2023-10-13T06:07:51;17.03;;;7.93;;
13327;SDS011;6733;51.044;3.746;2023-10-13T06:10:37;12.93;;;8.03;;
13327;SDS011;6733;51.044;3.746;2023-10-13T06:13:22;15.47;;;8.13;;
13327;SDS011;6733;51.044;3.746;2023-10-13T06:16:08;13.73;;;7.60;;
13327;SDS011;6733;51.044;3.746;2023-10-13T06:18:53;17.83;;;8.00;;
13327;SDS011;6733;51.044;3.746;2023-10-13T06:21:38;14.80;;;7.23;;
13327;SDS011;6733;51.044;3.746;2023-10-13T06:24:23;12.90;;;6.97;;
13327;SDS011;6733;51.044;3.746;2023-10-13T06:27:08;12.63;;;7.27;;
13327;SDS011;6733;51.044;3.746;2023-10-13T06:29:53;15.67;;;7.20;;
13327;SDS011;6733;51.044;3.746;2023-10-13T06:32:19;16.87;;;7.37;;
13327;SDS011;6733;51.044;3.746;2023-10-13T06:34:46;14.83;;;7.53;;
13327;SDS011;6733;51.044;3.746;2023-10-13T06:37:13;14.20;;;7.60;;
13327;SDS011;6733;51.044;3.746;2023-10-13T06:39:56;15.40;;;7.53;;
13327;SDS011;6733;51.044;3.746;2023-10-13T06:42:25;13.47;;;7.40;;
13327;SDS011;6733;51.044;3.746;2023-10-13T06:44:53;13.87;;;7.00;;
13327;SDS011;6733;51.044;3.746;2023-10-13T06:47:22;13.27;;;7.07;;
13327;SDS011;6733;51.044;3.746;2023-10-13T06:49:50;15.83;;;6.47;;
13327;SDS011;6733;51.044;3.746;2023-10-13T06:52:20;15.47;;;7.17;;
13327;SDS011;6733;51.044;3.746;2023-10-13T06:54:51;13.27;;;7.17;;
13327;SDS011;6733;51.044;3.746;2023-10-13T06:57:21;17.63;;;7.13;;
13327;SDS011;6733;51.044;3.746;2023-10-13T06:59:47;18.67;;;7.43;;
13327;SDS011;6733;51.044;3.746;2023-10-13T07:02:14;13.40;;;6.47;;
13327;SDS011;6733;51.044;3.746;2023-10-13T07:04:47;14.33;;;7.10;;
13327;SDS011;6733;51.044;3.746;2023-10-13T07:07:14;14.30;;;7.47;;
13327;SDS011;6733;51.044;3.746;2023-10-13T07:09:41;19.27;;;7.20;;
13327;SDS011;6733;51.044;3.746;2023-10-13T07:12:24;14.20;;;7.80;;
13327;SDS011;6733;51.044;3.746;2023-10-13T07:14:53;16.17;;;7.33;;
13327;SDS011;6733;51.044;3.746;2023-10-13T07:17:36;13.57;;;6.90;;
13327;SDS011;6733;51.044;3.746;2023-10-13T07:20:06;11.77;;;6.83;;
13327;SDS011;6733;51.044;3.746;2023-10-13T07:22:51;11.20;;;7.10;;
13327;SDS011;6733;51.044;3.746;2023-10-13T07:25:31;14.17;;;6.40;;
13327;SDS011;6733;51.044;3.746;2023-10-13T07:28:01;16.30;;;6.97;;
13327;SDS011;6733;51.044;3.746;2023-10-13T07:30:34;16.20;;;6.63;;
13327;SDS011;6733;51.044;3.746;2023-10-13T07:33:19;14.97;;;6.67;;
13327;SDS011;6733;51.044;3.746;2023-10-13T07:35:46;15.47;;;6.90;;
13327;SDS011;6733;51.044;3.746;2023-10-13T07:38:16;14.77;;;7.07;;
13327;SDS011;6733;51.044;3.746;2023-10-13T07:40:46;22.60;;;7.37;;
13327;SDS011;6733;51.044;3.746;2023-10-13T07:43:16;15.13;;;6.47;;
13327;SDS011;6733;51.044;3.746;2023-10-13T07:45:47;12.37;;;6.50;;
13327;SDS011;6733;51.044;3.746;2023-10-13T07:48:18;16.43;;;6.43;;
13327;SDS011;6733;51.044;3.746;2023-10-13T07:50:47;13.07;;;7.10;;
13327;SDS011;6733;51.044;3.746;2023-10-13T07:53:23;12.90;;;6.67;;
13327;SDS011;6733;51.044;3.746;2023-10-13T07:55:50;14.70;;;7.10;;
13327;SDS011;6733;51.044;3.746;2023-10-13T07:58:24;16.27;;;6.67;;
13327;SDS011;6733;51.044;3.746;2023-10-13T08:00:53;17.30;;;6.93;;
13327;SDS011;6733;51.044;3.746;2023-10-13T08:03:42;17.43;;;7.30;;
13327;SDS011;6733;51.044;3.746;2023-10-13T08:06:12;19.17;;;8.00;;
13327;SDS011;6733;51.044;3.746;2023-10-13T08:08:42;16.63;;;7.20;;
13327;SDS011;6733;51.044;3.746;2023-10-13T08:11:16;13.27;;;6.90;;
13327;SDS011;6733;51.044;3.746;2023-10-13T08:13:49;17.10;;;7.63;;
13327;SDS011;6733;51.044;3.746;2023-10-13T08:16:33;14.43;;;6.83;;
13327;SDS011;6733;51.044;3.746;2023-10-13T08:19:25;13.60;;;7.53;;
13327;SDS011;6733;51.044;3.746;2023-10-13T08:21:57;15.13;;;6.80;;
13327;SDS011;6733;51.044;3.746;2023-10-13T08:24:50;12.87;;;7.30;;
13327;SDS011;6733;51.044;3.746;2023-10-13T08:27:21;15.83;;;7.97;;
13327;SDS011;6733;51.044;3.746;2023-10-13T08:30:05;16.10;;;7.37;;
13327;SDS011;6733;51.044;3.746;2023-10-13T08:32:50;11.67;;;7.17;;
13327;SDS011;6733;51.044;3.746;2023-10-13T08:35:20;14.90;;;7.53;;
13327;SDS011;6733;51.044;3.746;2023-10-13T08:37:56;16.13;;;7.77;;
13327;SDS011;6733;51.044;3.746;2023-10-13T08:40:28;20.67;;;7.43;;
13327;SDS011;6733;51.044;3.746;2023-10-13T08:43:17;14.23;;;7.77;;
13327;SDS011;6733;51.044;3.746;2023-10-13T08:45:43;15.93;;;7.40;;
13327;SDS011;6733;51.044;3.746;2023-10-13T08:48:11;14.70;;;7.27;;
13327;SDS011;6733;51.044;3.746;2023-10-13T08:50:50;15.23;;;7.60;;
13327;SDS011;6733;51.044;3.746;2023-10-13T08:53:21;16.70;;;7.20;;
13327;SDS011;6733;51.044;3.746;2023-10-13T08:58:33;16.70;;;7.63;;
13327;SDS011;6733;51.044;3.746;2023-10-13T09:01:19;14.73;;;7.17;;
13327;SDS011;6733;51.044;3.746;2023-10-13T09:04:05;17.73;;;7.83;;
13327;SDS011;6733;51.044;3.746;2023-10-13T09:06:56;13.10;;;7.23;;
13327;SDS011;6733;51.044;3.746;2023-10-13T09:12:18;17.73;;;7.33;;
13327;SDS011;6733;51.044;3.746;2023-10-13T09:15:08;18.27;;;7.73;;
13327;SDS011;6733;51.044;3.746;2023-10-13T09:17:42;15.63;;;7.10;;
13327;SDS011;6733;51.044;3.746;2023-10-13T09:20:28;14.10;;;7.00;;
13327;SDS011;6733;51.044;3.746;2023-10-13T09:23:11;14.67;;;7.07;;
13327;SDS011;6733;51.044;3.746;2023-10-13T09:25:49;14.13;;;6.97;;
13327;SDS011;6733;51.044;3.746;2023-10-13T09:28:34;12.47;;;6.87;;
13327;SDS011;6733;51.044;3.746;2023-10-13T09:31:02;16.27;;;7.63;;
13327;SDS011;6733;51.044;3.746;2023-10-13T09:33:33;11.43;;;7.03;;
13327;SDS011;6733;51.044;3.746;2023-10-13T09:36:02;13.47;;;7.37;;
13327;SDS011;6733;51.044;3.746;2023-10-13T09:38:36;16.20;;;7.30;;
13327;SDS011;6733;51.044;3.746;2023-10-13T09:41:06;19.20;;;7.27;;
13327;SDS011;6733;51.044;3.746;2023-10-13T09:43:51;16.50;;;7.37;;
13327;SDS011;6733;51.044;3.746;2023-10-13T09:46:21;15.30;;;7.67;;
13327;SDS011;6733;51.044;3.746;2023-10-13T09:48:54;16.00;;;7.63;;
13327;SDS011;6733;51.044;3.746;2023-10-13T09:51:33;16.40;;;6.83;;
13327;SDS011;6733;51.044;3.746;2023-10-13T09:56:43;13.50;;;6.70;;
13327;SDS011;6733;51.044;3.746;2023-10-13T09:59:22;15.80;;;7.10;;
13327;SDS011;6733;51.044;3.746;2023-10-13T10:02:01;14.43;;;7.17;;
13327;SDS011;6733;51.044;3.746;2023-10-13T10:04:34;16.00;;;7.53;;
13327;SDS011;6733;51.044;3.746;2023-10-13T10:07:10;16.17;;;7.53;;
13327;SDS011;6733;51.044;3.746;2023-10-13T10:09:36;13.20;;;7.13;;
13327;SDS011;6733;51.044;3.746;2023-10-13T10:12:12;12.87;;;7.33;;
13327;SDS011;6733;51.044;3.746;2023-10-13T10:17:39;17.27;;;7.37;;
13327;SDS011;6733;51.044;3.746;2023-10-13T10:20:07;13.57;;;7.73;;
13327;SDS011;6733;51.044;3.746;2023-10-13T10:22:58;12.33;;;7.47;;
13327;SDS011;6733;51.044;3.746;2023-10-13T10:25:31;15.73;;;7.47;;
13327;SDS011;6733;51.044;3.746;2023-10-13T10:28:03;17.67;;;7.90;;
13327;SDS011;6733;51.044;3.746;2023-10-13T10:30:34;14.73;;;7.93;;
13327;SDS011;6733;51.044;3.746;2023-10-13T10:33:04;17.53;;;8.20;;
13327;SDS011;6733;51.044;3.746;2023-10-13T10:35:39;18.30;;;7.20;;
13327;SDS011;6733;51.044;3.746;2023-10-13T10:38:13;10.97;;;7.37;;
13327;SDS011;6733;51.044;3.746;2023-10-13T10:40:51;13.17;;;6.80;;
13327;SDS011;6733;51.044;3.746;2023-10-13T10:45:52;13.10;;;7.50;;
13327;SDS011;6733;51.044;3.746;2023-10-13T10:48:25;18.87;;;7.57;;
13327;SDS011;6733;51.044;3.746;2023-10-13T10:50:58;16.53;;;8.70;;
13327;SDS011;6733;51.044;3.746;2023-10-13T10:53:33;15.30;;;7.27;;
13327;SDS011;6733;51.044;3.746;2023-10-13T10:56:10;15.57;;;7.33;;
13327;SDS011;6733;51.044;3.746;2023-10-13T10:58:47;18.73;;;8.07;;
13327;SDS011;6733;51.044;3.746;2023-10-13T11:01:14;15.77;;;7.73;;
13327;SDS011;6733;51.044;3.746;2023-10-13T11:06:25;17.73;;;7.70;;
13327;SDS011;6733;51.044;3.746;2023-10-13T11:09:05;16.40;;;8.13;;
13327;SDS011;6733;51.044;3.746;2023-10-13T11:11:57;17.37;;;8.10;;
13327;SDS011;6733;51.044;3.746;2023-10-13T11:15:02;18.83;;;8.53;;
13327;SDS011;6733;51.044;3.746;2023-10-13T11:17:48;23.13;;;9.37;;
13327;SDS011;6733;51.044;3.746;2023-10-13T11:20:22;15.73;;;7.83;;
13327;SDS011;6733;51.044;3.746;2023-10-13T11:22:51;22.53;;;7.77;;
13327;SDS011;6733;51.044;3.746;2023-10-13T11:25:25;16.10;;;7.73;;
13327;SDS011;6733;51.044;3.746;2023-10-13T11:27:57;16.37;;;7.47;;
13327;SDS011;6733;51.044;3.746;2023-10-13T11:30:26;16.07;;;7.70;;
13327;SDS011;6733;51.044;3.746;2023-10-13T11:32:57;15.77;;;8.20;;
13327;SDS011;6733;51.044;3.746;2023-10-13T11:35:25;15.60;;;7.30;;
13327;SDS011;6733;51.044;3.746;2023-10-13T11:37:54;14.53;;;8.10;;
13327;SDS011;6733;51.044;3.746;2023-10-13T11:40:38;14.97;;;7.13;;
13327;SDS011;6733;51.044;3.746;2023-10-13T11:43:37;16.17;;;7.13;;
13327;SDS011;6733;51.044;3.746;2023-10-13T11:46:09;16.07;;;7.97;;
13327;SDS011;6733;51.044;3.746;2023-10-13T11:48:36;14.63;;;7.80;;
13327;SDS011;6733;51.044;3.746;2023-10-13T11:51:03;15.27;;;6.83;;
13327;SDS011;6733;51.044;3.746;2023-10-13T11:53:36;15.40;;;7.43;;
13327;SDS011;6733;51.044;3.746;2023-10-13T11:56:04;16.53;;;7.53;;
13327;SDS011;6733;51.044;3.746;2023-10-13T11:58:36;21.57;;;8.27;;
13327;SDS011;6733;51.044;3.746;2023-10-13T12:01:03;15.07;;;7.50;;
13327;SDS011;6733;51.044;3.746;2023-10-13T12:03:39;16.37;;;8.03;;
13327;SDS011;6733;51.044;3.746;2023-10-13T12:06:24;12.23;;;6.87;;
13327;SDS011;6733;51.044;3.746;2023-10-13T12:09:06;19.77;;;7.07;;
13327;SDS011;6733;51.044;3.746;2023-10-13T12:11:57;14.27;;;6.93;;
13327;SDS011;6733;51.044;3.746;2023-10-13T12:14:26;18.07;;;6.97;;
13327;SDS011;6733;51.044;3.746;2023-10-13T12:17:02;13.60;;;7.10;;
13327;SDS011;6733;51.044;3.746;2023-10-13T12:19:36;14.17;;;7.43;;
13327;SDS011;6733;51.044;3.746;2023-10-13T12:22:04;15.60;;;7.43;;
13327;SDS011;6733;51.044;3.746;2023-10-13T12:24:34;14.63;;;7.15;;
13327;SDS011;6733;51.044;3.746;2023-10-13T12:27:04;19.80;;;7.13;;
13327;SDS011;6733;51.044;3.746;2023-10-13T12:29:49;17.98;;;7.30;;
13327;SDS011;6733;51.044;3.746;2023-10-13T12:32:22;10.07;;;5.90;;
13327;SDS011;6733;51.044;3.746;2023-10-13T12:34:50;18.90;;;7.60;;
13327;SDS011;6733;51.044;3.746;2023-10-13T12:37:29;13.32;;;7.32;;
13327;SDS011;6733;51.044;3.746;2023-10-13T12:40:09;14.75;;;7.25;;
13327;SDS011;6733;51.044;3.746;2023-10-13T12:42:57;15.93;;;6.72;;
13327;SDS011;6733;51.044;3.746;2023-10-13T12:45:43;13.23;;;6.57;;
13327;SDS011;6733;51.044;3.746;2023-10-13T12:48:28;16.45;;;7.57;;
13327;SDS011;6733;51.044;3.746;2023-10-13T12:51:15;15.38;;;7.10;;
13327;SDS011;6733;51.044;3.746;2023-10-13T12:53:53;15.38;;;7.20;;
13327;SDS011;6733;51.044;3.746;2023-10-13T12:56:21;14.07;;;7.05;;
13327;SDS011;6733;51.044;3.746;2023-10-13T12:58:51;10.63;;;6.32;;
13327;SDS011;6733;51.044;3.746;2023-10-13T13:01:18;13.80;;;7.15;;
13327;SDS011;6733;51.044;3.746;2023-10-13T13:03:49;16.42;;;7.25;;
13327;SDS011;6733;51.044;3.746;2023-10-13T13:06:16;15.68;;;7.25;;
13327;SDS011;6733;51.044;3.746;2023-10-13T13:08:43;12.17;;;6.63;;
13327;SDS011;6733;51.044;3.746;2023-10-13T13:11:10;12.10;;;6.43;;
13327;SDS011;6733;51.044;3.746;2023-10-13T13:13:37;9.93;;;6.53;;
13327;SDS011;6733;51.044;3.746;2023-10-13T13:16:03;11.83;;;7.20;;
13327;SDS011;6733;51.044;3.746;2023-10-13T13:18:29;10.73;;;6.40;;
13327;SDS011;6733;51.044;3.746;2023-10-13T13:20:55;13.93;;;7.40;;
13327;SDS011;6733;51.044;3.746;2023-10-13T13:23:22;14.73;;;7.33;;
13327;SDS011;6733;51.044;3.746;2023-10-13T13:25:52;12.57;;;6.73;;
13327;SDS011;6733;51.044;3.746;2023-10-13T13:28:18;14.33;;;6.83;;
13327;SDS011;6733;51.044;3.746;2023-10-13T13:30:44;11.83;;;6.67;;
13327;SDS011;6733;51.044;3.746;2023-10-13T13:33:18;11.80;;;6.57;;
13327;SDS011;6733;51.044;3.746;2023-10-13T13:35:52;13.53;;;6.83;;
13327;SDS011;6733;51.044;3.746;2023-10-13T13:38:19;12.50;;;6.83;;
13327;SDS011;6733;51.044;3.746;2023-10-13T13:40:53;11.23;;;6.93;;
13327;SDS011;6733;51.044;3.746;2023-10-13T13:43:22;15.53;;;7.17;;
13327;SDS011;6733;51.044;3.746;2023-10-13T13:46:04;17.57;;;7.83;;
13327;SDS011;6733;51.044;3.746;2023-10-13T13:48:35;19.57;;;6.97;;
13327;SDS011;6733;51.044;3.746;2023-10-13T13:51:03;12.73;;;7.33;;
13327;SDS011;6733;51.044;3.746;2023-10-13T13:53:31;12.80;;;7.00;;
13327;SDS011;6733;51.044;3.746;2023-10-13T13:56:01;11.07;;;6.63;;
13327;SDS011;6733;51.044;3.746;2023-10-13T13:58:28;14.90;;;7.13;;
13327;SDS011;6733;51.044;3.746;2023-10-13T14:01:01;15.10;;;6.70;;
13327;SDS011;6733;51.044;3.746;2023-10-13T14:03:38;14.40;;;6.77;;
13327;SDS011;6733;51.044;3.746;2023-10-13T14:06:11;12.73;;;7.20;;
13327;SDS011;6733;51.044;3.746;2023-10-13T14:08:47;12.43;;;6.63;;
13327;SDS011;6733;51.044;3.746;2023-10-13T14:11:17;14.37;;;7.00;;
13327;SDS011;6733;51.044;3.746;2023-10-13T14:14:02;13.60;;;7.10;;
13327;SDS011;6733;51.044;3.746;2023-10-13T14:16:30;10.73;;;6.77;;
13327;SDS011;6733;51.044;3.746;2023-10-13T14:19:02;14.00;;;6.70;;
13327;SDS011;6733;51.044;3.746;2023-10-13T14:21:33;11.03;;;6.57;;
13327;SDS011;6733;51.044;3.746;2023-10-13T14:24:00;16.90;;;6.90;;
13327;SDS011;6733;51.044;3.746;2023-10-13T14:26:27;15.73;;;6.43;;
13327;SDS011;6733;51.044;3.746;2023-10-13T14:28:55;14.80;;;6.47;;
13327;SDS011;6733;51.044;3.746;2023-10-13T14:31:40;12.10;;;6.07;;
13327;SDS011;6733;51.044;3.746;2023-10-13T14:34:07;12.77;;;6.40;;
13327;SDS011;6733;51.044;3.746;2023-10-13T14:36:34;11.50;;;6.60;;
13327;SDS011;6733;51.044;3.746;2023-10-13T14:39:00;11.03;;;6.50;;
13327;SDS011;6733;51.044;3.746;2023-10-13T14:41:28;11.03;;;6.67;;
13327;SDS011;6733;51.044;3.746;2023-10-13T14:43:55;11.50;;;6.30;;
13327;SDS011;6733;51.044;3.746;2023-10-13T14:46:30;13.07;;;6.63;;
13327;SDS011;6733;51.044;3.746;2023-10-13T14:48:57;12.93;;;6.13;;
13327;SDS011;6733;51.044;3.746;2023-10-13T14:51:23;16.00;;;6.73;;
13327;SDS011;6733;51.044;3.746;2023-10-13T14:53:51;16.03;;;6.90;;
13327;SDS011;6733;51.044;3.746;2023-10-13T14:56:21;14.27;;;6.77;;
13327;SDS011;6733;51.044;3.746;2023-10-13T14:58:52;14.87;;;6.43;;
13327;SDS011;6733;51.044;3.746;2023-10-13T15:01:20;15.07;;;6.50;;
13327;SDS011;6733;51.044;3.746;2023-10-13T15:03:48;10.87;;;5.70;;
13327;SDS011;6733;51.044;3.746;2023-10-13T15:06:16;12.57;;;6.90;;
13327;SDS011;6733;51.044;3.746;2023-10-13T15:09:01;17.80;;;6.60;;
13327;SDS011;6733;51.044;3.746;2023-10-13T15:11:29;10.80;;;6.10;;
13327;SDS011;6733;51.044;3.746;2023-10-13T15:14:06;15.67;;;6.60;;
13327;SDS011;6733;51.044;3.746;2023-10-13T15:16:32;9.57;;;6.03;;
13327;SDS011;6733;51.044;3.746;2023-10-13T15:19:01;15.30;;;6.27;;
13327;SDS011;6733;51.044;3.746;2023-10-13T15:21:30;12.00;;;6.00;;
13327;SDS011;6733;51.044;3.746;2023-10-13T15:24:02;11.30;;;6.07;;
13327;SDS011;6733;51.044;3.746;2023-10-13T15:26:30;11.17;;;5.43;;
13327;SDS011;6733;51.044;3.746;2023-10-13T15:28:59;12.33;;;5.63;;
13327;SDS011;6733;51.044;3.746;2023-10-13T15:31:26;11.43;;;5.77;;
13327;SDS011;6733;51.044;3.746;2023-10-13T15:34:12;11.10;;;5.47;;
13327;SDS011;6733;51.044;3.746;2023-10-13T15:36:39;14.90;;;5.67;;
13327;SDS011;6733;51.044;3.746;2023-10-13T15:39:08;13.57;;;6.00;;
13327;SDS011;6733;51.044;3.746;2023-10-13T15:41:36;10.57;;;5.73;;
13327;SDS011;6733;51.044;3.746;2023-10-13T15:44:04;16.37;;;5.87;;
13327;SDS011;6733;51.044;3.746;2023-10-13T15:46:35;14.23;;;6.27;;
13327;SDS011;6733;51.044;3.746;2023-10-13T15:49:02;11.03;;;5.90;;
13327;SDS011;6733;51.044;3.746;2023-10-13T15:51:32;15.40;;;6.10;;
13327;SDS011;6733;51.044;3.746;2023-10-13T15:54:02;14.00;;;5.60;;
13327;SDS011;6733;51.044;3.746;2023-10-13T15:56:29;13.83;;;6.17;;
13327;SDS011;6733;51.044;3.746;2023-10-13T15:58:59;13.57;;;6.40;;
13327;SDS011;6733;51.044;3.746;2023-10-13T16:01:28;17.50;;;7.47;;
13327;SDS011;6733;51.044;3.746;2023-10-13T16:03:54;13.87;;;6.70;;
13327;SDS011;6733;51.044;3.746;2023-10-13T16:06:21;12.10;;;6.90;;
13327;SDS011;6733;51.044;3.746;2023-10-13T16:08:51;13.67;;;6.77;;
13327;SDS011;6733;51.044;3.746;2023-10-13T16:11:18;15.33;;;6.50;;
13327;SDS011;6733;51.044;3.746;2023-10-13T16:13:44;12.93;;;6.43;;
13327;SDS011;6733;51.044;3.746;2023-10-13T16:16:15;12.97;;;6.97;;
13327;SDS011;6733;51.044;3.746;2023-10-13T16:18:44;13.57;;;7.10;;
13327;SDS011;6733;51.044;3.746;2023-10-13T16:21:12;15.70;;;7.20;;